sensor_id;sensor_type;location;lat;lon;timestamp;P1;durP1;ratioP1;P2;durP2;ratioP2
77278;SDS011;66332;50.436;15.378;2023-04-25T00:00:15;5.65;;;2.10;;
77278;SDS011;66332;50.436;15.378;2023-04-25T00:05:17;5.15;;;1.92;;
77278;SDS011;66332;50.436;15.378;2023-04-25T00:09:58;5.20;;;1.92;;
77278;SDS011;66332;50.436;15.378;2023-04-25T00:14:39;6.28;;;2.13;;
77278;SDS011;66332;50.436;15.378;2023-04-25T00:19:20;6.38;;;2.10;;
77278;SDS011;66332;50.436;15.378;2023-04-25T00:24:00;5.93;;;1.90;;
77278;SDS011;66332;50.436;15.378;2023-04-25T00:28:41;6.28;;;2.10;;
77278;SDS011;66332;50.436;15.378;2023-04-25T00:33:22;6.18;;;2.20;;
77278;SDS011;66332;50.436;15.378;2023-04-25T00:38:03;5.88;;;2.15;;
77278;SDS011;66332;50.436;15.378;2023-04-25T00:42:44;5.32;;;1.98;;
77278;SDS011;66332;50.436;15.378;2023-04-25T00:47:26;6.35;;;2.40;;
77278;SDS011;66332;50.436;15.378;2023-04-25T00:52:09;5.65;;;2.00;;
77278;SDS011;66332;50.436;15.378;2023-04-25T00:56:51;5.30;;;2.25;;
77278;SDS011;66332;50.436;15.378;2023-04-25T01:01:32;6.68;;;2.20;;
77278;SDS011;66332;50.436;15.378;2023-04-25T01:06:13;7.35;;;2.25;;
77278;SDS011;66332;50.436;15.378;2023-04-25T01:10:54;5.90;;;2.40;;
77278;SDS011;66332;50.436;15.378;2023-04-25T01:15:34;6.38;;;2.67;;
77278;SDS011;66332;50.436;15.378;2023-04-25T01:20:16;6.07;;;2.33;;
77278;SDS011;66332;50.436;15.378;2023-04-25T01:24:57;6.72;;;2.45;;
77278;SDS011;66332;50.436;15.378;2023-04-25T01:29:39;7.40;;;3.15;;
77278;SDS011;66332;50.436;15.378;2023-04-25T01:34:20;7.00;;;2.72;;
77278;SDS011;66332;50.436;15.378;2023-04-25T01:39:01;7.72;;;3.03;;
77278;SDS011;66332;50.436;15.378;2023-04-25T01:43:42;7.03;;;3.13;;
77278;SDS011;66332;50.436;15.378;2023-04-25T01:48:23;7.18;;;3.38;;
77278;SDS011;66332;50.436;15.378;2023-04-25T01:53:04;8.32;;;3.13;;
77278;SDS011;66332;50.436;15.378;2023-04-25T01:57:45;7.13;;;3.17;;
77278;SDS011;66332;50.436;15.378;2023-04-25T02:02:26;7.97;;;2.92;;
77278;SDS011;66332;50.436;15.378;2023-04-25T02:07:07;7.95;;;3.30;;
77278;SDS011;66332;50.436;15.378;2023-04-25T02:11:47;6.70;;;3.00;;
77278;SDS011;66332;50.436;15.378;2023-04-25T02:16:28;7.32;;;3.33;;
77278;SDS011;66332;50.436;15.378;2023-04-25T02:21:11;9.88;;;3.50;;
77278;SDS011;66332;50.436;15.378;2023-04-25T02:25:52;9.50;;;3.03;;
77278;SDS011;66332;50.436;15.378;2023-04-25T02:39:55;8.95;;;3.78;;
77278;SDS011;66332;50.436;15.378;2023-04-25T02:44:35;8.93;;;4.03;;
77278;SDS011;66332;50.436;15.378;2023-04-25T02:49:16;10.32;;;4.13;;
77278;SDS011;66332;50.436;15.378;2023-04-25T02:53:57;9.35;;;3.85;;
77278;SDS011;66332;50.436;15.378;2023-04-25T02:58:38;10.98;;;4.57;;
77278;SDS011;66332;50.436;15.378;2023-04-25T03:03:18;10.07;;;4.25;;
77278;SDS011;66332;50.436;15.378;2023-04-25T03:08:02;10.10;;;4.35;;
77278;SDS011;66332;50.436;15.378;2023-04-25T03:12:43;9.82;;;4.80;;
77278;SDS011;66332;50.436;15.378;2023-04-25T03:17:24;10.07;;;4.35;;
77278;SDS011;66332;50.436;15.378;2023-04-25T03:22:05;12.02;;;4.13;;
77278;SDS011;66332;50.436;15.378;2023-04-25T03:26:45;8.95;;;4.18;;
77278;SDS011;66332;50.436;15.378;2023-04-25T03:31:26;9.27;;;4.07;;
77278;SDS011;66332;50.436;15.378;2023-04-25T03:36:07;9.93;;;4.53;;
77278;SDS011;66332;50.436;15.378;2023-04-25T03:40:49;10.20;;;4.40;;
77278;SDS011;66332;50.436;15.378;2023-04-25T03:45:31;10.15;;;4.35;;
77278;SDS011;66332;50.436;15.378;2023-04-25T03:50:12;11.52;;;4.38;;
77278;SDS011;66332;50.436;15.378;2023-04-25T03:54:53;10.05;;;4.45;;
77278;SDS011;66332;50.436;15.378;2023-04-25T03:59:33;11.82;;;4.53;;
77278;SDS011;66332;50.436;15.378;2023-04-25T04:04:14;11.00;;;4.95;;
77278;SDS011;66332;50.436;15.378;2023-04-25T04:08:55;12.27;;;4.83;;
77278;SDS011;66332;50.436;15.378;2023-04-25T04:13:35;11.02;;;4.63;;
77278;SDS011;66332;50.436;15.378;2023-04-25T04:18:16;10.80;;;4.47;;
77278;SDS011;66332;50.436;15.378;2023-04-25T04:22:57;11.23;;;5.05;;
77278;SDS011;66332;50.436;15.378;2023-04-25T04:27:38;12.60;;;5.07;;
77278;SDS011;66332;50.436;15.378;2023-04-25T04:32:19;12.80;;;5.82;;
77278;SDS011;66332;50.436;15.378;2023-04-25T04:37:00;13.13;;;5.32;;
77278;SDS011;66332;50.436;15.378;2023-04-25T04:41:41;10.85;;;5.00;;
77278;SDS011;66332;50.436;15.378;2023-04-25T04:46:23;13.07;;;5.97;;
77278;SDS011;66332;50.436;15.378;2023-04-25T04:51:05;12.32;;;5.18;;
77278;SDS011;66332;50.436;15.378;2023-04-25T05:00:27;11.90;;;4.88;;
77278;SDS011;66332;50.436;15.378;2023-04-25T05:05:09;13.40;;;4.93;;
77278;SDS011;66332;50.436;15.378;2023-04-25T05:09:50;12.38;;;5.03;;
77278;SDS011;66332;50.436;15.378;2023-04-25T05:14:31;11.95;;;5.70;;
77278;SDS011;66332;50.436;15.378;2023-04-25T05:19:12;11.88;;;5.70;;
77278;SDS011;66332;50.436;15.378;2023-04-25T05:23:53;12.40;;;5.43;;
77278;SDS011;66332;50.436;15.378;2023-04-25T05:28:34;10.32;;;5.07;;
77278;SDS011;66332;50.436;15.378;2023-04-25T05:33:16;9.80;;;4.82;;
77278;SDS011;66332;50.436;15.378;2023-04-25T05:37:57;14.85;;;5.07;;
77278;SDS011;66332;50.436;15.378;2023-04-25T05:42:38;9.95;;;4.55;;
77278;SDS011;66332;50.436;15.378;2023-04-25T05:47:18;10.43;;;4.70;;
77278;SDS011;66332;50.436;15.378;2023-04-25T05:51:59;10.60;;;4.72;;
77278;SDS011;66332;50.436;15.378;2023-04-25T05:56:40;9.63;;;4.28;;
77278;SDS011;66332;50.436;15.378;2023-04-25T06:01:22;10.70;;;4.55;;
77278;SDS011;66332;50.436;15.378;2023-04-25T06:06:03;11.57;;;4.88;;
77278;SDS011;66332;50.436;15.378;2023-04-25T06:10:44;11.25;;;4.57;;
77278;SDS011;66332;50.436;15.378;2023-04-25T06:15:25;9.27;;;4.32;;
77278;SDS011;66332;50.436;15.378;2023-04-25T06:20:06;10.25;;;4.65;;
77278;SDS011;66332;50.436;15.378;2023-04-25T06:24:48;10.38;;;4.55;;
77278;SDS011;66332;50.436;15.378;2023-04-25T06:29:29;9.30;;;4.75;;
77278;SDS011;66332;50.436;15.378;2023-04-25T06:34:10;8.55;;;3.95;;
77278;SDS011;66332;50.436;15.378;2023-04-25T06:38:51;10.55;;;4.45;;
77278;SDS011;66332;50.436;15.378;2023-04-25T06:43:33;11.02;;;4.90;;
77278;SDS011;66332;50.436;15.378;2023-04-25T06:48:14;9.27;;;4.70;;
77278;SDS011;66332;50.436;15.378;2023-04-25T06:52:54;9.25;;;3.95;;
77278;SDS011;66332;50.436;15.378;2023-04-25T06:57:35;8.10;;;4.00;;
77278;SDS011;66332;50.436;15.378;2023-04-25T07:02:19;7.20;;;3.33;;
77278;SDS011;66332;50.436;15.378;2023-04-25T07:07:01;8.77;;;3.35;;
77278;SDS011;66332;50.436;15.378;2023-04-25T07:11:43;7.82;;;3.50;;
77278;SDS011;66332;50.436;15.378;2023-04-25T07:16:26;8.02;;;3.80;;
77278;SDS011;66332;50.436;15.378;2023-04-25T07:21:07;8.82;;;3.60;;
77278;SDS011;66332;50.436;15.378;2023-04-25T07:25:48;8.32;;;3.47;;
77278;SDS011;66332;50.436;15.378;2023-04-25T07:30:30;8.68;;;3.50;;
77278;SDS011;66332;50.436;15.378;2023-04-25T07:35:11;10.20;;;3.45;;
77278;SDS011;66332;50.436;15.378;2023-04-25T07:39:52;9.80;;;3.78;;
77278;SDS011;66332;50.436;15.378;2023-04-25T07:44:33;7.03;;;3.53;;
77278;SDS011;66332;50.436;15.378;2023-04-25T07:49:18;7.88;;;3.58;;
77278;SDS011;66332;50.436;15.378;2023-04-25T07:54:00;9.52;;;3.50;;
77278;SDS011;66332;50.436;15.378;2023-04-25T08:03:21;10.20;;;4.63;;
77278;SDS011;66332;50.436;15.378;2023-04-25T08:12:43;9.32;;;3.83;;
77278;SDS011;66332;50.436;15.378;2023-04-25T08:17:25;8.05;;;3.40;;
77278;SDS011;66332;50.436;15.378;2023-04-25T08:22:05;7.90;;;3.42;;
77278;SDS011;66332;50.436;15.378;2023-04-25T08:26:46;7.03;;;3.22;;
77278;SDS011;66332;50.436;15.378;2023-04-25T08:31:27;8.32;;;3.63;;
77278;SDS011;66332;50.436;15.378;2023-04-25T08:36:08;9.30;;;3.88;;
77278;SDS011;66332;50.436;15.378;2023-04-25T08:40:50;7.75;;;4.35;;
77278;SDS011;66332;50.436;15.378;2023-04-25T08:45:32;8.00;;;4.05;;
77278;SDS011;66332;50.436;15.378;2023-04-25T08:50:14;9.98;;;4.68;;
77278;SDS011;66332;50.436;15.378;2023-04-25T08:54:55;10.32;;;5.38;;
77278;SDS011;66332;50.436;15.378;2023-04-25T08:59:38;10.13;;;5.35;;
77278;SDS011;66332;50.436;15.378;2023-04-25T09:04:20;11.13;;;5.40;;
77278;SDS011;66332;50.436;15.378;2023-04-25T09:09:02;12.52;;;6.22;;
77278;SDS011;66332;50.436;15.378;2023-04-25T09:13:48;12.30;;;6.50;;
77278;SDS011;66332;50.436;15.378;2023-04-25T09:18:32;10.65;;;5.70;;
77278;SDS011;66332;50.436;15.378;2023-04-25T09:23:14;12.02;;;5.85;;
77278;SDS011;66332;50.436;15.378;2023-04-25T09:27:55;12.95;;;6.32;;
77278;SDS011;66332;50.436;15.378;2023-04-25T09:37:17;11.20;;;5.90;;
77278;SDS011;66332;50.436;15.378;2023-04-25T09:42:01;11.15;;;6.05;;
77278;SDS011;66332;50.436;15.378;2023-04-25T09:46:43;10.13;;;5.07;;
77278;SDS011;66332;50.436;15.378;2023-04-25T09:51:25;13.07;;;5.75;;
77278;SDS011;66332;50.436;15.378;2023-04-25T09:56:07;10.00;;;5.50;;
77278;SDS011;66332;50.436;15.378;2023-04-25T10:00:51;12.55;;;6.65;;
77278;SDS011;66332;50.436;15.378;2023-04-25T10:05:32;11.07;;;6.10;;
77278;SDS011;66332;50.436;15.378;2023-04-25T10:10:26;11.85;;;5.80;;
77278;SDS011;66332;50.436;15.378;2023-04-25T10:15:09;11.82;;;6.15;;
77278;SDS011;66332;50.436;15.378;2023-04-25T10:19:54;11.05;;;6.10;;
77278;SDS011;66332;50.436;15.378;2023-04-25T10:24:35;10.85;;;6.35;;
77278;SDS011;66332;50.436;15.378;2023-04-25T10:29:23;11.20;;;6.05;;
77278;SDS011;66332;50.436;15.378;2023-04-25T10:34:11;10.65;;;6.05;;
77278;SDS011;66332;50.436;15.378;2023-04-25T10:43:43;11.02;;;5.00;;
77278;SDS011;66332;50.436;15.378;2023-04-25T10:48:26;11.15;;;5.10;;
77278;SDS011;66332;50.436;15.378;2023-04-25T10:53:15;11.23;;;4.38;;
77278;SDS011;66332;50.436;15.378;2023-04-25T10:57:56;6.93;;;3.67;;
77278;SDS011;66332;50.436;15.378;2023-04-25T11:02:43;9.27;;;4.47;;
77278;SDS011;66332;50.436;15.378;2023-04-25T11:12:19;8.77;;;4.55;;
77278;SDS011;66332;50.436;15.378;2023-04-25T11:17:00;10.07;;;4.75;;
77278;SDS011;66332;50.436;15.378;2023-04-25T11:21:44;10.18;;;4.80;;
77278;SDS011;66332;50.436;15.378;2023-04-25T11:26:28;9.27;;;5.00;;
77278;SDS011;66332;50.436;15.378;2023-04-25T11:35:54;11.80;;;5.57;;
77278;SDS011;66332;50.436;15.378;2023-04-25T11:40:39;10.07;;;5.15;;
77278;SDS011;66332;50.436;15.378;2023-04-25T11:45:21;10.80;;;5.93;;
77278;SDS011;66332;50.436;15.378;2023-04-25T11:50:04;10.13;;;4.95;;
77278;SDS011;66332;50.436;15.378;2023-04-25T11:54:47;13.68;;;5.18;;
77278;SDS011;66332;50.436;15.378;2023-04-25T11:59:28;9.15;;;5.10;;
77278;SDS011;66332;50.436;15.378;2023-04-25T12:04:13;9.00;;;4.60;;
77278;SDS011;66332;50.436;15.378;2023-04-25T12:09:02;9.15;;;4.95;;
77278;SDS011;66332;50.436;15.378;2023-04-25T12:13:44;8.05;;;3.25;;
77278;SDS011;66332;50.436;15.378;2023-04-25T12:18:25;5.93;;;3.10;;
77278;SDS011;66332;50.436;15.378;2023-04-25T12:23:09;9.65;;;3.28;;
77278;SDS011;66332;50.436;15.378;2023-04-25T12:27:54;7.38;;;2.70;;
77278;SDS011;66332;50.436;15.378;2023-04-25T12:32:35;7.53;;;2.70;;
77278;SDS011;66332;50.436;15.378;2023-04-25T12:37:16;7.20;;;2.80;;
77278;SDS011;66332;50.436;15.378;2023-04-25T12:41:57;6.35;;;2.38;;
77278;SDS011;66332;50.436;15.378;2023-04-25T12:46:39;6.30;;;2.58;;
77278;SDS011;66332;50.436;15.378;2023-04-25T12:51:21;6.78;;;2.58;;
77278;SDS011;66332;50.436;15.378;2023-04-25T12:56:05;10.32;;;2.80;;
77278;SDS011;66332;50.436;15.378;2023-04-25T13:00:47;6.18;;;2.65;;
77278;SDS011;66332;50.436;15.378;2023-04-25T13:10:08;7.55;;;2.80;;
77278;SDS011;66332;50.436;15.378;2023-04-25T13:14:50;6.32;;;2.72;;
77278;SDS011;66332;50.436;15.378;2023-04-25T13:24:11;5.93;;;2.45;;
77278;SDS011;66332;50.436;15.378;2023-04-25T13:28:52;6.82;;;2.60;;
77278;SDS011;66332;50.436;15.378;2023-04-25T13:33:33;6.60;;;2.50;;
77278;SDS011;66332;50.436;15.378;2023-04-25T13:42:56;5.53;;;2.33;;
77278;SDS011;66332;50.436;15.378;2023-04-25T13:52:18;6.28;;;2.40;;
77278;SDS011;66332;50.436;15.378;2023-04-25T13:56:59;5.90;;;2.45;;
77278;SDS011;66332;50.436;15.378;2023-04-25T14:01:40;6.30;;;2.25;;
77278;SDS011;66332;50.436;15.378;2023-04-25T14:06:21;6.50;;;2.60;;
77278;SDS011;66332;50.436;15.378;2023-04-25T14:11:04;5.93;;;2.45;;
77278;SDS011;66332;50.436;15.378;2023-04-25T14:15:45;6.30;;;2.90;;
77278;SDS011;66332;50.436;15.378;2023-04-25T14:20:26;7.88;;;3.10;;
77278;SDS011;66332;50.436;15.378;2023-04-25T14:25:07;6.53;;;3.10;;
77278;SDS011;66332;50.436;15.378;2023-04-25T14:29:49;6.90;;;3.05;;
77278;SDS011;66332;50.436;15.378;2023-04-25T14:34:30;6.07;;;2.78;;
77278;SDS011;66332;50.436;15.378;2023-04-25T14:39:12;5.20;;;2.53;;
77278;SDS011;66332;50.436;15.378;2023-04-25T14:43:54;5.95;;;2.40;;
77278;SDS011;66332;50.436;15.378;2023-04-25T14:48:37;5.32;;;2.25;;
77278;SDS011;66332;50.436;15.378;2023-04-25T14:53:18;6.28;;;2.60;;
77278;SDS011;66332;50.436;15.378;2023-04-25T15:02:41;5.85;;;2.40;;
77278;SDS011;66332;50.436;15.378;2023-04-25T15:12:03;6.82;;;2.42;;
77278;SDS011;66332;50.436;15.378;2023-04-25T15:16:44;5.88;;;2.45;;
77278;SDS011;66332;50.436;15.378;2023-04-25T15:21:25;6.07;;;2.42;;
77278;SDS011;66332;50.436;15.378;2023-04-25T15:26:06;6.30;;;2.45;;
77278;SDS011;66332;50.436;15.378;2023-04-25T15:30:48;6.85;;;2.60;;
77278;SDS011;66332;50.436;15.378;2023-04-25T15:35:29;5.80;;;2.45;;
77278;SDS011;66332;50.436;15.378;2023-04-25T15:40:11;6.45;;;2.50;;
77278;SDS011;66332;50.436;15.378;2023-04-25T15:44:54;5.88;;;2.67;;
77278;SDS011;66332;50.436;15.378;2023-04-25T15:49:35;7.65;;;2.92;;
77278;SDS011;66332;50.436;15.378;2023-04-25T15:54:19;7.32;;;3.30;;
77278;SDS011;66332;50.436;15.378;2023-04-25T15:59:01;6.32;;;2.65;;
77278;SDS011;66332;50.436;15.378;2023-04-25T16:03:42;7.82;;;2.83;;
77278;SDS011;66332;50.436;15.378;2023-04-25T16:08:23;7.82;;;2.83;;
77278;SDS011;66332;50.436;15.378;2023-04-25T16:13:08;6.03;;;2.10;;
77278;SDS011;66332;50.436;15.378;2023-04-25T16:17:49;5.40;;;2.00;;
77278;SDS011;66332;50.436;15.378;2023-04-25T16:22:31;6.50;;;2.35;;
77278;SDS011;66332;50.436;15.378;2023-04-25T16:27:12;6.95;;;2.35;;
77278;SDS011;66332;50.436;15.378;2023-04-25T16:31:54;5.80;;;2.35;;
77278;SDS011;66332;50.436;15.378;2023-04-25T16:41:16;6.55;;;2.20;;
77278;SDS011;66332;50.436;15.378;2023-04-25T16:45:58;9.20;;;2.30;;
77278;SDS011;66332;50.436;15.378;2023-04-25T16:50:39;7.47;;;2.42;;
77278;SDS011;66332;50.436;15.378;2023-04-25T16:55:20;6.63;;;2.22;;
77278;SDS011;66332;50.436;15.378;2023-04-25T17:00:01;6.20;;;2.38;;
77278;SDS011;66332;50.436;15.378;2023-04-25T17:04:42;7.22;;;2.72;;
77278;SDS011;66332;50.436;15.378;2023-04-25T17:09:23;8.43;;;2.60;;
77278;SDS011;66332;50.436;15.378;2023-04-25T17:14:04;6.43;;;2.80;;
77278;SDS011;66332;50.436;15.378;2023-04-25T17:18:45;10.82;;;3.40;;
77278;SDS011;66332;50.436;15.378;2023-04-25T17:23:26;7.57;;;2.90;;
77278;SDS011;66332;50.436;15.378;2023-04-25T17:28:07;10.45;;;3.50;;
77278;SDS011;66332;50.436;15.378;2023-04-25T17:32:48;9.00;;;3.30;;
77278;SDS011;66332;50.436;15.378;2023-04-25T17:37:29;9.23;;;3.55;;
77278;SDS011;66332;50.436;15.378;2023-04-25T17:42:11;11.05;;;3.45;;
77278;SDS011;66332;50.436;15.378;2023-04-25T17:46:52;8.60;;;3.83;;
77278;SDS011;66332;50.436;15.378;2023-04-25T17:51:33;8.82;;;3.33;;
77278;SDS011;66332;50.436;15.378;2023-04-25T17:56:17;10.98;;;3.65;;
77278;SDS011;66332;50.436;15.378;2023-04-25T18:00:59;8.30;;;3.05;;
77278;SDS011;66332;50.436;15.378;2023-04-25T18:10:22;9.20;;;3.00;;
77278;SDS011;66332;50.436;15.378;2023-04-25T18:15:03;12.20;;;3.67;;
77278;SDS011;66332;50.436;15.378;2023-04-25T18:19:47;12.68;;;4.15;;
77278;SDS011;66332;50.436;15.378;2023-04-25T18:24:28;10.10;;;3.83;;
77278;SDS011;66332;50.436;15.378;2023-04-25T18:29:10;10.15;;;3.80;;
77278;SDS011;66332;50.436;15.378;2023-04-25T18:33:52;10.63;;;4.20;;
77278;SDS011;66332;50.436;15.378;2023-04-25T18:38:33;10.40;;;3.75;;
77278;SDS011;66332;50.436;15.378;2023-04-25T18:43:14;11.38;;;4.50;;
77278;SDS011;66332;50.436;15.378;2023-04-25T18:47:55;13.70;;;4.53;;
77278;SDS011;66332;50.436;15.378;2023-04-25T18:52:36;11.05;;;4.22;;
77278;SDS011;66332;50.436;15.378;2023-04-25T18:57:17;12.85;;;4.50;;
77278;SDS011;66332;50.436;15.378;2023-04-25T19:01:58;15.02;;;5.07;;
77278;SDS011;66332;50.436;15.378;2023-04-25T19:06:41;13.43;;;4.25;;
77278;SDS011;66332;50.436;15.378;2023-04-25T19:11:22;10.60;;;4.13;;
77278;SDS011;66332;50.436;15.378;2023-04-25T19:16:03;12.13;;;4.30;;
77278;SDS011;66332;50.436;15.378;2023-04-25T19:20:44;10.70;;;3.85;;
77278;SDS011;66332;50.436;15.378;2023-04-25T19:25:25;12.45;;;3.95;;
77278;SDS011;66332;50.436;15.378;2023-04-25T19:30:07;11.13;;;3.85;;
77278;SDS011;66332;50.436;15.378;2023-04-25T19:34:48;8.73;;;3.60;;
77278;SDS011;66332;50.436;15.378;2023-04-25T19:39:29;9.13;;;3.30;;
77278;SDS011;66332;50.436;15.378;2023-04-25T19:44:10;10.13;;;3.35;;
77278;SDS011;66332;50.436;15.378;2023-04-25T19:48:51;12.65;;;3.65;;
77278;SDS011;66332;50.436;15.378;2023-04-25T19:53:32;13.35;;;4.00;;
77278;SDS011;66332;50.436;15.378;2023-04-25T19:58:13;8.38;;;2.90;;
77278;SDS011;66332;50.436;15.378;2023-04-25T20:02:54;9.45;;;3.25;;
77278;SDS011;66332;50.436;15.378;2023-04-25T20:07:34;10.82;;;4.20;;
77278;SDS011;66332;50.436;15.378;2023-04-25T20:12:15;9.05;;;3.85;;
77278;SDS011;66332;50.436;15.378;2023-04-25T20:16:57;13.90;;;4.32;;
77278;SDS011;66332;50.436;15.378;2023-04-25T20:21:38;11.02;;;3.40;;
77278;SDS011;66332;50.436;15.378;2023-04-25T20:26:19;13.85;;;3.63;;
77278;SDS011;66332;50.436;15.378;2023-04-25T20:31:00;13.48;;;3.85;;
77278;SDS011;66332;50.436;15.378;2023-04-25T20:45:03;12.90;;;3.97;;
77278;SDS011;66332;50.436;15.378;2023-04-25T20:49:47;11.75;;;3.78;;
77278;SDS011;66332;50.436;15.378;2023-04-25T20:54:27;14.07;;;4.20;;
77278;SDS011;66332;50.436;15.378;2023-04-25T20:59:10;11.27;;;3.72;;
77278;SDS011;66332;50.436;15.378;2023-04-25T21:03:51;13.48;;;4.40;;
77278;SDS011;66332;50.436;15.378;2023-04-25T21:08:32;9.60;;;4.13;;
77278;SDS011;66332;50.436;15.378;2023-04-25T21:13:13;10.35;;;3.65;;
77278;SDS011;66332;50.436;15.378;2023-04-25T21:17:54;10.63;;;4.28;;
77278;SDS011;66332;50.436;15.378;2023-04-25T21:22:35;9.68;;;4.05;;
77278;SDS011;66332;50.436;15.378;2023-04-25T21:27:16;12.05;;;4.30;;
77278;SDS011;66332;50.436;15.378;2023-04-25T21:31:57;12.32;;;4.45;;
77278;SDS011;66332;50.436;15.378;2023-04-25T21:36:37;10.48;;;3.92;;
77278;SDS011;66332;50.436;15.378;2023-04-25T21:41:18;11.35;;;3.90;;
77278;SDS011;66332;50.436;15.378;2023-04-25T21:45:59;8.57;;;3.15;;
77278;SDS011;66332;50.436;15.378;2023-04-25T21:50:40;9.43;;;3.45;;
